METAR Data
IDs: Format: Raw Decoded Include TAF

Data at: 2057 UTC 23 Jan 2020

KMGJ 232054Z AUTO 21005KT 10SM CLR 03/M07 A3030 RMK AO2 SLP264 T00331072 55011